sensor_id;sensor_type;location;lat;lon;timestamp;temperature;humidity
30534;DHT22;17318;52.390;9.754;2023-02-01T00:02:00;7.00;99.90
30534;DHT22;17318;52.390;9.754;2023-02-01T00:04:26;7.20;99.90
30534;DHT22;17318;52.390;9.754;2023-02-01T00:06:52;7.10;99.90
30534;DHT22;17318;52.390;9.754;2023-02-01T00:09:17;7.10;99.90
30534;DHT22;17318;52.390;9.754;2023-02-01T00:11:43;7.10;99.90
30534;DHT22;17318;52.390;9.754;2023-02-01T00:14:09;7.10;99.90
30534;DHT22;17318;52.390;9.754;2023-02-01T00:16:35;7.10;99.90
30534;DHT22;17318;52.390;9.754;2023-02-01T00:19:12;7.10;99.90
30534;DHT22;17318;52.390;9.754;2023-02-01T00:21:38;7.20;99.90
30534;DHT22;17318;52.390;9.754;2023-02-01T00:24:04;7.20;99.90
30534;DHT22;17318;52.390;9.754;2023-02-01T00:29:02;7.20;99.90
30534;DHT22;17318;52.390;9.754;2023-02-01T00:31:28;7.20;99.90
30534;DHT22;17318;52.390;9.754;2023-02-01T00:33:54;7.20;99.90
30534;DHT22;17318;52.390;9.754;2023-02-01T00:36:20;7.20;99.90
30534;DHT22;17318;52.390;9.754;2023-02-01T00:38:45;7.10;99.90
30534;DHT22;17318;52.390;9.754;2023-02-01T00:41:13;7.00;99.90
30534;DHT22;17318;52.390;9.754;2023-02-01T00:43:40;7.00;99.90
30534;DHT22;17318;52.390;9.754;2023-02-01T00:46:06;7.00;99.90
30534;DHT22;17318;52.390;9.754;2023-02-01T00:48:32;7.10;99.90
30534;DHT22;17318;52.390;9.754;2023-02-01T00:51:02;7.10;99.90
30534;DHT22;17318;52.390;9.754;2023-02-01T00:53:28;7.20;99.90
30534;DHT22;17318;52.390;9.754;2023-02-01T00:55:54;7.50;99.90
30534;DHT22;17318;52.390;9.754;2023-02-01T00:58:20;7.10;99.90
30534;DHT22;17318;52.390;9.754;2023-02-01T01:00:45;7.00;99.90
30534;DHT22;17318;52.390;9.754;2023-02-01T01:03:12;7.10;99.90
30534;DHT22;17318;52.390;9.754;2023-02-01T01:05:45;7.30;99.90
30534;DHT22;17318;52.390;9.754;2023-02-01T01:08:11;7.10;99.90
30534;DHT22;17318;52.390;9.754;2023-02-01T01:10:37;7.00;99.90
30534;DHT22;17318;52.390;9.754;2023-02-01T01:13:02;7.00;99.90
30534;DHT22;17318;52.390;9.754;2023-02-01T01:15:28;7.00;99.90
30534;DHT22;17318;52.390;9.754;2023-02-01T01:17:54;7.10;99.90
30534;DHT22;17318;52.390;9.754;2023-02-01T01:20:19;7.10;99.90
30534;DHT22;17318;52.390;9.754;2023-02-01T01:22:47;7.30;99.90
30534;DHT22;17318;52.390;9.754;2023-02-01T01:25:13;7.20;99.90
30534;DHT22;17318;52.390;9.754;2023-02-01T01:27:39;7.00;99.90
30534;DHT22;17318;52.390;9.754;2023-02-01T01:30:05;7.00;99.90
30534;DHT22;17318;52.390;9.754;2023-02-01T01:32:31;7.00;99.90
30534;DHT22;17318;52.390;9.754;2023-02-01T01:34:57;7.00;99.90
30534;DHT22;17318;52.390;9.754;2023-02-01T01:37:22;7.00;99.90
30534;DHT22;17318;52.390;9.754;2023-02-01T01:39:48;6.90;99.90
30534;DHT22;17318;52.390;9.754;2023-02-01T01:42:14;7.00;99.90
30534;DHT22;17318;52.390;9.754;2023-02-01T01:47:20;7.00;99.90
30534;DHT22;17318;52.390;9.754;2023-02-01T01:49:46;6.90;99.90
30534;DHT22;17318;52.390;9.754;2023-02-01T01:52:12;7.00;99.90
30534;DHT22;17318;52.390;9.754;2023-02-01T01:54:41;7.00;99.90
30534;DHT22;17318;52.390;9.754;2023-02-01T01:57:15;7.10;99.90
30534;DHT22;17318;52.390;9.754;2023-02-01T01:59:45;7.00;99.90
30534;DHT22;17318;52.390;9.754;2023-02-01T02:02:13;7.00;99.90
30534;DHT22;17318;52.390;9.754;2023-02-01T02:04:38;7.00;99.90
30534;DHT22;17318;52.390;9.754;2023-02-01T02:07:09;7.10;99.90
30534;DHT22;17318;52.390;9.754;2023-02-01T02:09:37;7.10;99.90
30534;DHT22;17318;52.390;9.754;2023-02-01T02:12:03;7.10;99.90
30534;DHT22;17318;52.390;9.754;2023-02-01T02:14:29;7.20;99.90
30534;DHT22;17318;52.390;9.754;2023-02-01T02:17:17;7.20;99.90
30534;DHT22;17318;52.390;9.754;2023-02-01T02:28:50;7.20;99.90
30534;DHT22;17318;52.390;9.754;2023-02-01T02:34:55;7.20;99.90
30534;DHT22;17318;52.390;9.754;2023-02-01T02:37:32;7.20;99.80
30534;DHT22;17318;52.390;9.754;2023-02-01T02:42:54;7.20;99.80
30534;DHT22;17318;52.390;9.754;2023-02-01T02:45:49;7.20;99.80
30534;DHT22;17318;52.390;9.754;2023-02-01T02:48:51;7.20;99.90
30534;DHT22;17318;52.390;9.754;2023-02-01T02:51:27;7.20;99.70
30534;DHT22;17318;52.390;9.754;2023-02-01T02:54:40;7.30;99.80
30534;DHT22;17318;52.390;9.754;2023-02-01T02:57:30;7.30;99.60
30534;DHT22;17318;52.390;9.754;2023-02-01T03:00:19;7.40;99.60
30534;DHT22;17318;52.390;9.754;2023-02-01T03:03:04;7.30;99.70
30534;DHT22;17318;52.390;9.754;2023-02-01T03:05:49;7.10;99.50
30534;DHT22;17318;52.390;9.754;2023-02-01T03:08:27;7.20;99.50
30534;DHT22;17318;52.390;9.754;2023-02-01T03:11:13;7.30;99.50
30534;DHT22;17318;52.390;9.754;2023-02-01T03:13:53;7.30;99.50
30534;DHT22;17318;52.390;9.754;2023-02-01T03:16:26;7.40;99.50
30534;DHT22;17318;52.390;9.754;2023-02-01T03:23:57;7.30;99.50
30534;DHT22;17318;52.390;9.754;2023-02-01T03:26:26;7.40;99.50
30534;DHT22;17318;52.390;9.754;2023-02-01T03:29:03;7.30;99.50
30534;DHT22;17318;52.390;9.754;2023-02-01T03:31:31;7.30;99.90
30534;DHT22;17318;52.390;9.754;2023-02-01T03:33:57;7.40;99.60
30534;DHT22;17318;52.390;9.754;2023-02-01T03:36:43;7.30;99.70
30534;DHT22;17318;52.390;9.754;2023-02-01T03:41:53;7.20;99.90
30534;DHT22;17318;52.390;9.754;2023-02-01T03:44:45;7.20;99.90
30534;DHT22;17318;52.390;9.754;2023-02-01T03:47:20;7.30;99.90
30534;DHT22;17318;52.390;9.754;2023-02-01T03:49:50;7.30;99.90
30534;DHT22;17318;52.390;9.754;2023-02-01T03:55:08;7.20;99.90
30534;DHT22;17318;52.390;9.754;2023-02-01T03:57:37;7.20;99.90
30534;DHT22;17318;52.390;9.754;2023-02-01T04:00:25;7.20;99.90
30534;DHT22;17318;52.390;9.754;2023-02-01T04:02:51;7.30;99.90
30534;DHT22;17318;52.390;9.754;2023-02-01T04:05:17;7.20;99.90
30534;DHT22;17318;52.390;9.754;2023-02-01T04:07:43;7.20;99.90
30534;DHT22;17318;52.390;9.754;2023-02-01T04:10:10;7.20;99.90
30534;DHT22;17318;52.390;9.754;2023-02-01T04:12:36;7.30;99.90
30534;DHT22;17318;52.390;9.754;2023-02-01T04:15:02;7.20;99.90
30534;DHT22;17318;52.390;9.754;2023-02-01T04:17:29;7.30;99.90
30534;DHT22;17318;52.390;9.754;2023-02-01T04:19:55;7.30;99.90
30534;DHT22;17318;52.390;9.754;2023-02-01T04:22:20;7.40;99.90
30534;DHT22;17318;52.390;9.754;2023-02-01T04:24:46;7.40;99.90
30534;DHT22;17318;52.390;9.754;2023-02-01T04:27:11;7.40;99.90
30534;DHT22;17318;52.390;9.754;2023-02-01T04:29:37;7.20;99.90
30534;DHT22;17318;52.390;9.754;2023-02-01T04:32:04;7.20;99.90
30534;DHT22;17318;52.390;9.754;2023-02-01T04:34:30;7.20;99.90
30534;DHT22;17318;52.390;9.754;2023-02-01T04:36:55;7.20;99.90
30534;DHT22;17318;52.390;9.754;2023-02-01T04:39:21;7.20;99.90
30534;DHT22;17318;52.390;9.754;2023-02-01T04:41:46;7.20;99.90
30534;DHT22;17318;52.390;9.754;2023-02-01T04:44:16;7.30;99.90
30534;DHT22;17318;52.390;9.754;2023-02-01T04:46:43;7.30;99.90
30534;DHT22;17318;52.390;9.754;2023-02-01T04:49:09;7.40;99.90
30534;DHT22;17318;52.390;9.754;2023-02-01T04:51:35;7.40;99.90
30534;DHT22;17318;52.390;9.754;2023-02-01T04:54:01;7.30;99.90
30534;DHT22;17318;52.390;9.754;2023-02-01T04:56:27;7.30;99.90
30534;DHT22;17318;52.390;9.754;2023-02-01T04:58:53;7.20;99.90
30534;DHT22;17318;52.390;9.754;2023-02-01T05:01:19;7.20;99.90
30534;DHT22;17318;52.390;9.754;2023-02-01T05:03:44;7.20;99.90
30534;DHT22;17318;52.390;9.754;2023-02-01T05:06:10;7.00;99.90
30534;DHT22;17318;52.390;9.754;2023-02-01T05:08:36;7.10;99.90
30534;DHT22;17318;52.390;9.754;2023-02-01T05:11:01;7.20;99.90
30534;DHT22;17318;52.390;9.754;2023-02-01T05:13:29;7.10;99.90
30534;DHT22;17318;52.390;9.754;2023-02-01T05:16:13;7.10;99.90
30534;DHT22;17318;52.390;9.754;2023-02-01T05:18:39;7.10;99.90
30534;DHT22;17318;52.390;9.754;2023-02-01T05:21:05;7.00;99.90
30534;DHT22;17318;52.390;9.754;2023-02-01T05:23:31;7.00;99.90
30534;DHT22;17318;52.390;9.754;2023-02-01T05:26:00;7.00;99.90
30534;DHT22;17318;52.390;9.754;2023-02-01T05:28:27;6.90;99.90
30534;DHT22;17318;52.390;9.754;2023-02-01T05:30:53;7.00;99.90
30534;DHT22;17318;52.390;9.754;2023-02-01T05:33:19;7.10;99.90
30534;DHT22;17318;52.390;9.754;2023-02-01T05:35:44;7.00;99.90
30534;DHT22;17318;52.390;9.754;2023-02-01T05:38:10;7.10;99.90
30534;DHT22;17318;52.390;9.754;2023-02-01T05:40:35;7.10;99.90
30534;DHT22;17318;52.390;9.754;2023-02-01T05:43:01;7.10;99.90
30534;DHT22;17318;52.390;9.754;2023-02-01T05:45:27;7.00;99.90
30534;DHT22;17318;52.390;9.754;2023-02-01T05:47:52;7.00;99.90
30534;DHT22;17318;52.390;9.754;2023-02-01T05:50:18;7.00;99.90
30534;DHT22;17318;52.390;9.754;2023-02-01T05:52:44;7.10;99.90
30534;DHT22;17318;52.390;9.754;2023-02-01T05:55:09;7.10;99.90
30534;DHT22;17318;52.390;9.754;2023-02-01T05:57:35;7.10;99.90
30534;DHT22;17318;52.390;9.754;2023-02-01T06:00:01;7.00;99.90
30534;DHT22;17318;52.390;9.754;2023-02-01T06:02:27;7.10;99.90
30534;DHT22;17318;52.390;9.754;2023-02-01T06:04:52;7.00;99.90
30534;DHT22;17318;52.390;9.754;2023-02-01T06:07:18;7.00;99.90
30534;DHT22;17318;52.390;9.754;2023-02-01T06:09:44;7.00;99.90
30534;DHT22;17318;52.390;9.754;2023-02-01T06:12:09;7.20;99.90
30534;DHT22;17318;52.390;9.754;2023-02-01T06:14:35;7.10;99.90
30534;DHT22;17318;52.390;9.754;2023-02-01T06:17:02;7.20;99.90
30534;DHT22;17318;52.390;9.754;2023-02-01T06:19:28;7.20;99.90
30534;DHT22;17318;52.390;9.754;2023-02-01T06:21:54;7.10;99.90
30534;DHT22;17318;52.390;9.754;2023-02-01T06:24:19;7.10;99.90
30534;DHT22;17318;52.390;9.754;2023-02-01T06:26:45;7.10;99.90
30534;DHT22;17318;52.390;9.754;2023-02-01T06:29:11;7.10;99.90
30534;DHT22;17318;52.390;9.754;2023-02-01T06:31:37;7.20;99.90
30534;DHT22;17318;52.390;9.754;2023-02-01T06:34:02;7.10;99.90
30534;DHT22;17318;52.390;9.754;2023-02-01T06:36:28;7.10;99.90
30534;DHT22;17318;52.390;9.754;2023-02-01T06:38:55;7.10;99.90
30534;DHT22;17318;52.390;9.754;2023-02-01T06:41:22;7.20;99.90
30534;DHT22;17318;52.390;9.754;2023-02-01T06:43:48;7.30;99.90
30534;DHT22;17318;52.390;9.754;2023-02-01T06:46:14;7.20;99.90
30534;DHT22;17318;52.390;9.754;2023-02-01T06:48:40;7.20;99.90
30534;DHT22;17318;52.390;9.754;2023-02-01T06:51:10;7.20;99.90
30534;DHT22;17318;52.390;9.754;2023-02-01T06:53:41;7.20;99.90
30534;DHT22;17318;52.390;9.754;2023-02-01T06:56:08;7.10;99.90
30534;DHT22;17318;52.390;9.754;2023-02-01T06:58:34;7.20;99.90
30534;DHT22;17318;52.390;9.754;2023-02-01T07:01:07;7.10;99.90
30534;DHT22;17318;52.390;9.754;2023-02-01T07:03:33;7.00;99.90
30534;DHT22;17318;52.390;9.754;2023-02-01T07:05:58;7.00;99.90
30534;DHT22;17318;52.390;9.754;2023-02-01T07:08:26;7.10;99.90
30534;DHT22;17318;52.390;9.754;2023-02-01T07:10:52;7.10;99.90
30534;DHT22;17318;52.390;9.754;2023-02-01T07:13:17;7.20;99.90
30534;DHT22;17318;52.390;9.754;2023-02-01T07:15:43;7.20;99.90
30534;DHT22;17318;52.390;9.754;2023-02-01T07:18:08;7.20;99.90
30534;DHT22;17318;52.390;9.754;2023-02-01T07:20:34;7.20;99.90
30534;DHT22;17318;52.390;9.754;2023-02-01T07:23:00;7.10;99.90
30534;DHT22;17318;52.390;9.754;2023-02-01T07:25:25;7.20;99.90
30534;DHT22;17318;52.390;9.754;2023-02-01T07:27:51;7.30;99.90
30534;DHT22;17318;52.390;9.754;2023-02-01T07:30:17;7.20;99.90
30534;DHT22;17318;52.390;9.754;2023-02-01T07:32:43;7.20;99.90
30534;DHT22;17318;52.390;9.754;2023-02-01T07:35:08;7.20;99.90
30534;DHT22;17318;52.390;9.754;2023-02-01T07:37:34;7.20;99.90
30534;DHT22;17318;52.390;9.754;2023-02-01T07:40:00;7.30;99.90
30534;DHT22;17318;52.390;9.754;2023-02-01T07:42:25;7.20;99.90
30534;DHT22;17318;52.390;9.754;2023-02-01T07:44:51;7.30;99.90
30534;DHT22;17318;52.390;9.754;2023-02-01T07:47:16;7.20;99.90
30534;DHT22;17318;52.390;9.754;2023-02-01T07:49:42;7.30;99.90
30534;DHT22;17318;52.390;9.754;2023-02-01T07:52:08;7.30;99.90
30534;DHT22;17318;52.390;9.754;2023-02-01T07:54:33;7.40;99.90
30534;DHT22;17318;52.390;9.754;2023-02-01T07:56:59;7.40;99.90
30534;DHT22;17318;52.390;9.754;2023-02-01T07:59:25;7.40;99.90
30534;DHT22;17318;52.390;9.754;2023-02-01T08:01:50;7.40;99.90
30534;DHT22;17318;52.390;9.754;2023-02-01T08:04:16;7.50;99.90
30534;DHT22;17318;52.390;9.754;2023-02-01T08:06:41;7.50;99.90
30534;DHT22;17318;52.390;9.754;2023-02-01T08:09:08;7.50;99.90
30534;DHT22;17318;52.390;9.754;2023-02-01T08:11:35;7.50;99.90
30534;DHT22;17318;52.390;9.754;2023-02-01T08:14:04;7.40;99.90
30534;DHT22;17318;52.390;9.754;2023-02-01T08:16:30;7.40;99.90
30534;DHT22;17318;52.390;9.754;2023-02-01T08:18:56;7.60;99.90
30534;DHT22;17318;52.390;9.754;2023-02-01T08:21:24;7.60;99.90
30534;DHT22;17318;52.390;9.754;2023-02-01T08:23:50;7.60;99.90
30534;DHT22;17318;52.390;9.754;2023-02-01T08:26:22;7.50;99.90
30534;DHT22;17318;52.390;9.754;2023-02-01T08:28:54;7.50;99.90
30534;DHT22;17318;52.390;9.754;2023-02-01T08:31:21;7.50;99.90
30534;DHT22;17318;52.390;9.754;2023-02-01T08:33:52;7.60;99.90
30534;DHT22;17318;52.390;9.754;2023-02-01T08:36:19;7.70;99.90
30534;DHT22;17318;52.390;9.754;2023-02-01T08:38:45;7.60;99.90
30534;DHT22;17318;52.390;9.754;2023-02-01T08:41:13;7.60;99.90
30534;DHT22;17318;52.390;9.754;2023-02-01T08:43:40;7.50;99.90
30534;DHT22;17318;52.390;9.754;2023-02-01T08:46:07;7.60;99.90
30534;DHT22;17318;52.390;9.754;2023-02-01T08:48:33;7.60;99.90
30534;DHT22;17318;52.390;9.754;2023-02-01T08:51:04;7.60;99.90
30534;DHT22;17318;52.390;9.754;2023-02-01T08:53:30;7.70;99.90
30534;DHT22;17318;52.390;9.754;2023-02-01T08:55:55;7.80;99.90
30534;DHT22;17318;52.390;9.754;2023-02-01T08:58:21;7.80;99.90
30534;DHT22;17318;52.390;9.754;2023-02-01T09:00:47;7.70;99.90
30534;DHT22;17318;52.390;9.754;2023-02-01T09:03:14;7.70;99.90
30534;DHT22;17318;52.390;9.754;2023-02-01T09:05:40;7.80;99.90
30534;DHT22;17318;52.390;9.754;2023-02-01T09:08:06;7.90;99.90
30534;DHT22;17318;52.390;9.754;2023-02-01T09:10:32;7.90;99.90
30534;DHT22;17318;52.390;9.754;2023-02-01T09:12:58;8.00;99.90
30534;DHT22;17318;52.390;9.754;2023-02-01T09:15:23;8.00;99.90
30534;DHT22;17318;52.390;9.754;2023-02-01T09:17:49;8.10;99.90
30534;DHT22;17318;52.390;9.754;2023-02-01T09:20:15;8.10;99.90
30534;DHT22;17318;52.390;9.754;2023-02-01T09:22:41;8.20;99.90
30534;DHT22;17318;52.390;9.754;2023-02-01T09:25:07;8.20;99.90
30534;DHT22;17318;52.390;9.754;2023-02-01T09:27:34;8.30;99.90
30534;DHT22;17318;52.390;9.754;2023-02-01T09:30:01;8.30;99.90
30534;DHT22;17318;52.390;9.754;2023-02-01T09:32:28;8.40;99.90
30534;DHT22;17318;52.390;9.754;2023-02-01T09:34:53;8.40;99.90
30534;DHT22;17318;52.390;9.754;2023-02-01T09:37:19;8.40;99.90
30534;DHT22;17318;52.390;9.754;2023-02-01T09:39:45;8.40;99.90
30534;DHT22;17318;52.390;9.754;2023-02-01T09:48:03;8.50;99.90
30534;DHT22;17318;52.390;9.754;2023-02-01T09:50:34;8.40;99.90
30534;DHT22;17318;52.390;9.754;2023-02-01T09:53:04;8.40;99.90
30534;DHT22;17318;52.390;9.754;2023-02-01T09:55:50;8.50;99.90
30534;DHT22;17318;52.390;9.754;2023-02-01T09:58:41;8.50;99.90
30534;DHT22;17318;52.390;9.754;2023-02-01T10:01:21;8.40;99.90
30534;DHT22;17318;52.390;9.754;2023-02-01T10:03:53;8.50;99.90
30534;DHT22;17318;52.390;9.754;2023-02-01T10:09:00;8.50;99.90
30534;DHT22;17318;52.390;9.754;2023-02-01T10:19:51;8.50;99.90
30534;DHT22;17318;52.390;9.754;2023-02-01T10:22:38;8.60;99.90
30534;DHT22;17318;52.390;9.754;2023-02-01T10:25:15;8.60;99.70
30534;DHT22;17318;52.390;9.754;2023-02-01T10:27:47;8.60;99.90
30534;DHT22;17318;52.390;9.754;2023-02-01T10:30:24;8.70;99.90
30534;DHT22;17318;52.390;9.754;2023-02-01T10:32:55;8.70;99.80
30534;DHT22;17318;52.390;9.754;2023-02-01T10:35:26;8.80;99.70
30534;DHT22;17318;52.390;9.754;2023-02-01T10:37:52;8.80;99.60
30534;DHT22;17318;52.390;9.754;2023-02-01T10:40:25;8.80;99.80
30534;DHT22;17318;52.390;9.754;2023-02-01T10:42:57;8.70;99.90
30534;DHT22;17318;52.390;9.754;2023-02-01T10:45:26;8.80;99.90
30534;DHT22;17318;52.390;9.754;2023-02-01T10:47:54;8.80;99.60
30534;DHT22;17318;52.390;9.754;2023-02-01T10:50:34;8.80;99.80
30534;DHT22;17318;52.390;9.754;2023-02-01T10:55:50;8.80;99.50
30534;DHT22;17318;52.390;9.754;2023-02-01T10:58:18;8.70;99.50
30534;DHT22;17318;52.390;9.754;2023-02-01T11:00:59;8.80;99.50
30534;DHT22;17318;52.390;9.754;2023-02-01T11:06:01;8.70;99.30
30534;DHT22;17318;52.390;9.754;2023-02-01T11:08:28;8.70;99.40
30534;DHT22;17318;52.390;9.754;2023-02-01T11:10:59;8.70;99.40
30534;DHT22;17318;52.390;9.754;2023-02-01T11:13:29;8.90;99.40
30534;DHT22;17318;52.390;9.754;2023-02-01T11:15:56;8.90;99.30
30534;DHT22;17318;52.390;9.754;2023-02-01T11:18:28;8.80;99.20
30534;DHT22;17318;52.390;9.754;2023-02-01T11:20:54;8.70;99.00
30534;DHT22;17318;52.390;9.754;2023-02-01T11:23:28;8.80;98.90
30534;DHT22;17318;52.390;9.754;2023-02-01T11:25:59;8.70;98.90
30534;DHT22;17318;52.390;9.754;2023-02-01T11:28:31;8.60;99.10
30534;DHT22;17318;52.390;9.754;2023-02-01T11:31:01;8.70;99.00
30534;DHT22;17318;52.390;9.754;2023-02-01T11:33:31;8.70;98.70
30534;DHT22;17318;52.390;9.754;2023-02-01T11:36:07;8.70;98.90
30534;DHT22;17318;52.390;9.754;2023-02-01T11:38:34;8.80;98.90
30534;DHT22;17318;52.390;9.754;2023-02-01T11:41:14;8.80;98.90
30534;DHT22;17318;52.390;9.754;2023-02-01T11:43:57;8.80;98.60
30534;DHT22;17318;52.390;9.754;2023-02-01T11:46:33;9.00;98.60
30534;DHT22;17318;52.390;9.754;2023-02-01T11:49:25;9.10;98.50
30534;DHT22;17318;52.390;9.754;2023-02-01T11:57:37;9.10;98.90
30534;DHT22;17318;52.390;9.754;2023-02-01T12:14:24;9.30;98.10
30534;DHT22;17318;52.390;9.754;2023-02-01T12:25:41;9.20;98.00
30534;DHT22;17318;52.390;9.754;2023-02-01T12:37:13;8.90;99.60
30534;DHT22;17318;52.390;9.754;2023-02-01T12:42:20;8.80;99.90
30534;DHT22;17318;52.390;9.754;2023-02-01T12:47:44;8.60;99.90
30534;DHT22;17318;52.390;9.754;2023-02-01T12:50:32;8.40;99.90
30534;DHT22;17318;52.390;9.754;2023-02-01T12:53:23;8.50;99.90
30534;DHT22;17318;52.390;9.754;2023-02-01T12:55:53;8.30;99.90
30534;DHT22;17318;52.390;9.754;2023-02-01T13:01:03;8.50;99.90
30534;DHT22;17318;52.390;9.754;2023-02-01T13:11:36;8.20;99.90
30534;DHT22;17318;52.390;9.754;2023-02-01T13:17:25;8.10;99.90
30534;DHT22;17318;52.390;9.754;2023-02-01T13:22:28;7.90;99.90
30534;DHT22;17318;52.390;9.754;2023-02-01T13:25:04;7.90;99.90
30534;DHT22;17318;52.390;9.754;2023-02-01T13:27:31;8.00;99.90
30534;DHT22;17318;52.390;9.754;2023-02-01T13:30:05;7.90;99.90
30534;DHT22;17318;52.390;9.754;2023-02-01T13:35:47;7.90;99.90
30534;DHT22;17318;52.390;9.754;2023-02-01T13:43:35;6.50;99.90
30534;DHT22;17318;52.390;9.754;2023-02-01T13:46:08;6.30;99.90
30534;DHT22;17318;52.390;9.754;2023-02-01T13:48:59;6.20;99.90
30534;DHT22;17318;52.390;9.754;2023-02-01T13:51:35;6.00;99.90
30534;DHT22;17318;52.390;9.754;2023-02-01T13:54:04;5.90;99.90
30534;DHT22;17318;52.390;9.754;2023-02-01T13:56:42;6.10;99.90
30534;DHT22;17318;52.390;9.754;2023-02-01T14:05:11;5.90;99.90
30534;DHT22;17318;52.390;9.754;2023-02-01T14:13:49;6.10;99.90
30534;DHT22;17318;52.390;9.754;2023-02-01T14:16:17;6.30;99.90
30534;DHT22;17318;52.390;9.754;2023-02-01T14:21:34;6.10;99.90
30534;DHT22;17318;52.390;9.754;2023-02-01T14:26:45;5.90;99.90
30534;DHT22;17318;52.390;9.754;2023-02-01T14:34:36;6.00;99.90
30534;DHT22;17318;52.390;9.754;2023-02-01T14:55:34;6.00;99.90
30534;DHT22;17318;52.390;9.754;2023-02-01T14:58:04;5.90;99.90
30534;DHT22;17318;52.390;9.754;2023-02-01T15:00:31;5.80;99.90
30534;DHT22;17318;52.390;9.754;2023-02-01T15:03:41;5.80;99.90
30534;DHT22;17318;52.390;9.754;2023-02-01T15:06:26;5.90;99.90
30534;DHT22;17318;52.390;9.754;2023-02-01T15:08:56;6.00;99.90
30534;DHT22;17318;52.390;9.754;2023-02-01T15:11:23;6.00;99.90
30534;DHT22;17318;52.390;9.754;2023-02-01T15:13:52;6.00;99.90
30534;DHT22;17318;52.390;9.754;2023-02-01T15:16:24;6.00;99.90
30534;DHT22;17318;52.390;9.754;2023-02-01T15:18:50;6.00;99.90
30534;DHT22;17318;52.390;9.754;2023-02-01T15:21:23;6.00;99.90
30534;DHT22;17318;52.390;9.754;2023-02-01T15:23:50;6.00;99.90
30534;DHT22;17318;52.390;9.754;2023-02-01T15:26:30;6.10;99.90
30534;DHT22;17318;52.390;9.754;2023-02-01T15:28:57;6.20;99.90
30534;DHT22;17318;52.390;9.754;2023-02-01T15:31:39;6.20;99.90
30534;DHT22;17318;52.390;9.754;2023-02-01T15:34:06;6.10;99.90
30534;DHT22;17318;52.390;9.754;2023-02-01T15:36:32;6.00;99.90
30534;DHT22;17318;52.390;9.754;2023-02-01T15:39:26;6.10;99.90
30534;DHT22;17318;52.390;9.754;2023-02-01T15:42:12;6.10;99.90
30534;DHT22;17318;52.390;9.754;2023-02-01T15:44:44;6.10;99.90
30534;DHT22;17318;52.390;9.754;2023-02-01T15:47:24;6.10;99.90
30534;DHT22;17318;52.390;9.754;2023-02-01T15:49:53;6.30;99.90
30534;DHT22;17318;52.390;9.754;2023-02-01T15:52:26;6.20;99.90
30534;DHT22;17318;52.390;9.754;2023-02-01T15:54:58;6.20;99.90
30534;DHT22;17318;52.390;9.754;2023-02-01T15:57:38;6.30;99.90
30534;DHT22;17318;52.390;9.754;2023-02-01T16:08:21;6.40;99.90
30534;DHT22;17318;52.390;9.754;2023-02-01T16:10:49;6.40;99.90
30534;DHT22;17318;52.390;9.754;2023-02-01T16:13:16;6.40;99.90
30534;DHT22;17318;52.390;9.754;2023-02-01T16:15:42;6.30;99.90
30534;DHT22;17318;52.390;9.754;2023-02-01T16:18:08;6.20;99.90
30534;DHT22;17318;52.390;9.754;2023-02-01T16:20:38;6.30;99.90
30534;DHT22;17318;52.390;9.754;2023-02-01T16:23:06;6.00;99.90
30534;DHT22;17318;52.390;9.754;2023-02-01T16:25:32;6.00;99.90
30534;DHT22;17318;52.390;9.754;2023-02-01T16:27:57;6.00;99.90
30534;DHT22;17318;52.390;9.754;2023-02-01T16:30:23;6.00;99.90
30534;DHT22;17318;52.390;9.754;2023-02-01T16:32:57;6.00;99.90
30534;DHT22;17318;52.390;9.754;2023-02-01T16:35:27;6.10;99.90
30534;DHT22;17318;52.390;9.754;2023-02-01T16:37:54;6.00;99.90
30534;DHT22;17318;52.390;9.754;2023-02-01T16:40:20;6.10;99.90
30534;DHT22;17318;52.390;9.754;2023-02-01T16:42:51;6.00;99.90
30534;DHT22;17318;52.390;9.754;2023-02-01T16:45:17;6.10;99.90
30534;DHT22;17318;52.390;9.754;2023-02-01T16:47:49;6.10;99.90
30534;DHT22;17318;52.390;9.754;2023-02-01T16:50:24;6.20;99.90
30534;DHT22;17318;52.390;9.754;2023-02-01T16:52:51;6.30;99.90
30534;DHT22;17318;52.390;9.754;2023-02-01T16:55:19;6.40;99.90
30534;DHT22;17318;52.390;9.754;2023-02-01T16:57:47;6.40;99.90
30534;DHT22;17318;52.390;9.754;2023-02-01T17:00:14;6.40;99.90
30534;DHT22;17318;52.390;9.754;2023-02-01T17:02:44;6.40;99.90
30534;DHT22;17318;52.390;9.754;2023-02-01T17:05:11;6.50;99.90
30534;DHT22;17318;52.390;9.754;2023-02-01T17:07:38;6.40;99.90
30534;DHT22;17318;52.390;9.754;2023-02-01T17:10:05;6.50;99.90
30534;DHT22;17318;52.390;9.754;2023-02-01T17:12:32;6.50;99.90
30534;DHT22;17318;52.390;9.754;2023-02-01T17:14:59;6.50;99.90
30534;DHT22;17318;52.390;9.754;2023-02-01T17:17:35;6.60;99.90
30534;DHT22;17318;52.390;9.754;2023-02-01T17:20:03;6.70;99.90
30534;DHT22;17318;52.390;9.754;2023-02-01T17:22:28;6.70;99.90
30534;DHT22;17318;52.390;9.754;2023-02-01T17:24:54;6.70;99.90
30534;DHT22;17318;52.390;9.754;2023-02-01T17:27:20;6.90;99.90
30534;DHT22;17318;52.390;9.754;2023-02-01T17:29:45;6.90;99.90
30534;DHT22;17318;52.390;9.754;2023-02-01T17:32:19;7.20;99.90
30534;DHT22;17318;52.390;9.754;2023-02-01T17:34:46;7.20;99.90
30534;DHT22;17318;52.390;9.754;2023-02-01T17:37:25;7.20;99.90
30534;DHT22;17318;52.390;9.754;2023-02-01T17:39:51;7.20;99.90
30534;DHT22;17318;52.390;9.754;2023-02-01T17:42:20;7.20;99.90
30534;DHT22;17318;52.390;9.754;2023-02-01T17:44:46;7.30;99.90
30534;DHT22;17318;52.390;9.754;2023-02-01T17:47:12;7.40;99.90
30534;DHT22;17318;52.390;9.754;2023-02-01T17:49:38;7.20;99.90
30534;DHT22;17318;52.390;9.754;2023-02-01T17:52:05;7.30;99.90
30534;DHT22;17318;52.390;9.754;2023-02-01T17:54:31;7.30;99.90
30534;DHT22;17318;52.390;9.754;2023-02-01T17:56:56;7.20;99.90
30534;DHT22;17318;52.390;9.754;2023-02-01T17:59:27;7.30;99.90
30534;DHT22;17318;52.390;9.754;2023-02-01T18:01:53;7.30;99.90
30534;DHT22;17318;52.390;9.754;2023-02-01T18:04:25;7.30;99.90
30534;DHT22;17318;52.390;9.754;2023-02-01T18:06:51;7.20;99.90
30534;DHT22;17318;52.390;9.754;2023-02-01T18:09:16;7.20;99.90
30534;DHT22;17318;52.390;9.754;2023-02-01T18:11:43;7.30;99.90
30534;DHT22;17318;52.390;9.754;2023-02-01T18:14:13;7.20;99.90
30534;DHT22;17318;52.390;9.754;2023-02-01T18:16:38;7.20;99.90
30534;DHT22;17318;52.390;9.754;2023-02-01T18:19:04;7.20;99.90
30534;DHT22;17318;52.390;9.754;2023-02-01T18:21:39;7.10;99.90
30534;DHT22;17318;52.390;9.754;2023-02-01T18:24:11;7.20;99.90
30534;DHT22;17318;52.390;9.754;2023-02-01T18:26:37;7.20;99.90
30534;DHT22;17318;52.390;9.754;2023-02-01T18:29:03;7.20;99.90
30534;DHT22;17318;52.390;9.754;2023-02-01T18:31:30;7.30;99.90
30534;DHT22;17318;52.390;9.754;2023-02-01T18:33:57;7.30;99.90
30534;DHT22;17318;52.390;9.754;2023-02-01T18:36:24;7.40;99.90
30534;DHT22;17318;52.390;9.754;2023-02-01T18:38:50;7.30;99.90
30534;DHT22;17318;52.390;9.754;2023-02-01T18:41:19;7.30;99.90
30534;DHT22;17318;52.390;9.754;2023-02-01T18:43:46;7.50;99.90
30534;DHT22;17318;52.390;9.754;2023-02-01T18:46:12;7.50;99.90
30534;DHT22;17318;52.390;9.754;2023-02-01T18:48:38;7.40;99.90
30534;DHT22;17318;52.390;9.754;2023-02-01T18:51:04;7.40;99.90